sensor_id;sensor_type;location;lat;lon;timestamp;P1;durP1;ratioP1;P2;durP2;ratioP2
71503;SDS011;59323;50.874;7.028;2022-10-31T00:02:00;13.40;;;5.53;;
71503;SDS011;59323;50.874;7.028;2022-10-31T00:04:28;12.93;;;5.40;;
71503;SDS011;59323;50.874;7.028;2022-10-31T00:06:54;12.57;;;5.15;;
71503;SDS011;59323;50.874;7.028;2022-10-31T00:09:19;14.17;;;4.80;;
71503;SDS011;59323;50.874;7.028;2022-10-31T00:11:44;15.97;;;6.17;;
71503;SDS011;59323;50.874;7.028;2022-10-31T00:14:10;11.20;;;5.30;;
71503;SDS011;59323;50.874;7.028;2022-10-31T00:16:35;12.73;;;4.63;;
71503;SDS011;59323;50.874;7.028;2022-10-31T00:19:02;12.83;;;5.20;;
71503;SDS011;59323;50.874;7.028;2022-10-31T00:21:30;11.43;;;4.50;;
71503;SDS011;59323;50.874;7.028;2022-10-31T00:23:56;17.35;;;5.30;;
71503;SDS011;59323;50.874;7.028;2022-10-31T00:26:23;12.35;;;5.20;;
71503;SDS011;59323;50.874;7.028;2022-10-31T00:28:49;9.70;;;4.70;;
71503;SDS011;59323;50.874;7.028;2022-10-31T00:31:16;11.68;;;4.60;;
71503;SDS011;59323;50.874;7.028;2022-10-31T00:33:41;16.30;;;5.05;;
71503;SDS011;59323;50.874;7.028;2022-10-31T00:36:11;11.00;;;5.10;;
71503;SDS011;59323;50.874;7.028;2022-10-31T00:39:09;16.35;;;5.95;;
71503;SDS011;59323;50.874;7.028;2022-10-31T00:41:35;13.82;;;5.75;;
71503;SDS011;59323;50.874;7.028;2022-10-31T00:44:00;12.17;;;5.27;;
71503;SDS011;59323;50.874;7.028;2022-10-31T00:46:26;14.67;;;5.57;;
71503;SDS011;59323;50.874;7.028;2022-10-31T00:48:51;12.20;;;5.57;;
71503;SDS011;59323;50.874;7.028;2022-10-31T00:51:16;13.70;;;4.93;;
71503;SDS011;59323;50.874;7.028;2022-10-31T00:53:42;13.33;;;5.13;;
71503;SDS011;59323;50.874;7.028;2022-10-31T00:56:11;15.27;;;5.57;;
71503;SDS011;59323;50.874;7.028;2022-10-31T00:58:36;10.50;;;4.93;;
71503;SDS011;59323;50.874;7.028;2022-10-31T01:01:05;15.93;;;5.73;;
71503;SDS011;59323;50.874;7.028;2022-10-31T01:03:31;15.25;;;6.20;;
71503;SDS011;59323;50.874;7.028;2022-10-31T01:06:07;13.87;;;5.30;;
71503;SDS011;59323;50.874;7.028;2022-10-31T01:08:35;15.50;;;5.45;;
71503;SDS011;59323;50.874;7.028;2022-10-31T01:11:06;17.08;;;5.80;;
71503;SDS011;59323;50.874;7.028;2022-10-31T01:13:36;10.75;;;5.32;;
71503;SDS011;59323;50.874;7.028;2022-10-31T01:16:11;15.70;;;5.95;;
71503;SDS011;59323;50.874;7.028;2022-10-31T01:18:38;14.30;;;5.17;;
71503;SDS011;59323;50.874;7.028;2022-10-31T01:21:05;11.48;;;5.28;;
71503;SDS011;59323;50.874;7.028;2022-10-31T01:23:32;12.73;;;4.88;;
71503;SDS011;59323;50.874;7.028;2022-10-31T01:28:39;14.00;;;5.10;;
71503;SDS011;59323;50.874;7.028;2022-10-31T01:31:09;13.45;;;5.38;;
71503;SDS011;59323;50.874;7.028;2022-10-31T01:33:35;12.47;;;5.63;;
71503;SDS011;59323;50.874;7.028;2022-10-31T01:36:01;13.38;;;4.50;;
71503;SDS011;59323;50.874;7.028;2022-10-31T01:38:35;12.85;;;5.20;;
71503;SDS011;59323;50.874;7.028;2022-10-31T01:41:01;12.97;;;4.57;;
71503;SDS011;59323;50.874;7.028;2022-10-31T01:43:41;11.50;;;4.83;;
71503;SDS011;59323;50.874;7.028;2022-10-31T01:46:14;9.90;;;4.43;;
71503;SDS011;59323;50.874;7.028;2022-10-31T01:48:42;14.95;;;4.93;;
71503;SDS011;59323;50.874;7.028;2022-10-31T01:51:08;10.73;;;4.77;;
71503;SDS011;59323;50.874;7.028;2022-10-31T01:53:34;13.55;;;4.90;;
71503;SDS011;59323;50.874;7.028;2022-10-31T01:56:00;11.50;;;5.35;;
71503;SDS011;59323;50.874;7.028;2022-10-31T01:58:27;10.93;;;4.60;;
71503;SDS011;59323;50.874;7.028;2022-10-31T02:00:56;12.57;;;5.50;;
71503;SDS011;59323;50.874;7.028;2022-10-31T02:03:23;16.20;;;5.05;;
71503;SDS011;59323;50.874;7.028;2022-10-31T02:05:50;10.80;;;4.60;;
71503;SDS011;59323;50.874;7.028;2022-10-31T02:08:20;12.43;;;4.45;;
71503;SDS011;59323;50.874;7.028;2022-10-31T02:10:47;13.88;;;4.63;;
71503;SDS011;59323;50.874;7.028;2022-10-31T02:13:12;14.63;;;5.30;;
71503;SDS011;59323;50.874;7.028;2022-10-31T02:15:39;12.27;;;5.05;;
71503;SDS011;59323;50.874;7.028;2022-10-31T02:18:06;13.10;;;4.50;;
71503;SDS011;59323;50.874;7.028;2022-10-31T02:20:46;11.13;;;4.43;;
71503;SDS011;59323;50.874;7.028;2022-10-31T02:28:43;10.90;;;4.70;;
71503;SDS011;59323;50.874;7.028;2022-10-31T02:34:05;14.63;;;5.25;;
71503;SDS011;59323;50.874;7.028;2022-10-31T02:47:01;10.98;;;5.00;;
71503;SDS011;59323;50.874;7.028;2022-10-31T02:49:32;12.30;;;5.63;;
71503;SDS011;59323;50.874;7.028;2022-10-31T02:52:02;13.60;;;5.25;;
71503;SDS011;59323;50.874;7.028;2022-10-31T02:54:38;12.57;;;4.70;;
71503;SDS011;59323;50.874;7.028;2022-10-31T02:57:05;12.10;;;5.23;;
71503;SDS011;59323;50.874;7.028;2022-10-31T02:59:33;10.93;;;4.63;;
71503;SDS011;59323;50.874;7.028;2022-10-31T03:02:09;12.45;;;4.55;;
71503;SDS011;59323;50.874;7.028;2022-10-31T03:15:40;12.25;;;4.93;;
71503;SDS011;59323;50.874;7.028;2022-10-31T03:18:11;13.75;;;5.00;;
71503;SDS011;59323;50.874;7.028;2022-10-31T03:21:04;13.90;;;4.95;;
71503;SDS011;59323;50.874;7.028;2022-10-31T03:23:44;13.80;;;4.83;;
71503;SDS011;59323;50.874;7.028;2022-10-31T03:26:21;13.80;;;5.68;;
71503;SDS011;59323;50.874;7.028;2022-10-31T03:29:08;13.63;;;4.53;;
71503;SDS011;59323;50.874;7.028;2022-10-31T03:31:36;10.30;;;4.03;;
71503;SDS011;59323;50.874;7.028;2022-10-31T03:34:05;11.60;;;4.78;;
71503;SDS011;59323;50.874;7.028;2022-10-31T03:36:34;9.80;;;3.93;;
71503;SDS011;59323;50.874;7.028;2022-10-31T03:39:04;13.60;;;4.90;;
71503;SDS011;59323;50.874;7.028;2022-10-31T03:41:31;15.65;;;5.53;;
71503;SDS011;59323;50.874;7.028;2022-10-31T03:44:04;10.85;;;4.22;;
71503;SDS011;59323;50.874;7.028;2022-10-31T03:46:34;13.60;;;5.28;;
71503;SDS011;59323;50.874;7.028;2022-10-31T03:48:59;14.90;;;5.63;;
71503;SDS011;59323;50.874;7.028;2022-10-31T03:51:34;11.90;;;5.10;;
71503;SDS011;59323;50.874;7.028;2022-10-31T03:54:09;14.02;;;4.75;;
71503;SDS011;59323;50.874;7.028;2022-10-31T03:56:57;10.65;;;5.55;;
71503;SDS011;59323;50.874;7.028;2022-10-31T03:59:35;11.40;;;5.10;;
71503;SDS011;59323;50.874;7.028;2022-10-31T04:02:10;12.18;;;5.07;;
71503;SDS011;59323;50.874;7.028;2022-10-31T04:04:40;12.13;;;5.20;;
71503;SDS011;59323;50.874;7.028;2022-10-31T04:07:09;11.48;;;5.07;;
71503;SDS011;59323;50.874;7.028;2022-10-31T04:09:36;11.13;;;4.60;;
71503;SDS011;59323;50.874;7.028;2022-10-31T04:12:06;13.03;;;5.27;;
71503;SDS011;59323;50.874;7.028;2022-10-31T04:14:34;14.77;;;5.38;;
71503;SDS011;59323;50.874;7.028;2022-10-31T04:17:03;15.57;;;5.50;;
71503;SDS011;59323;50.874;7.028;2022-10-31T04:19:32;13.32;;;4.90;;
71503;SDS011;59323;50.874;7.028;2022-10-31T04:21:58;10.88;;;4.45;;
71503;SDS011;59323;50.874;7.028;2022-10-31T04:24:23;11.60;;;4.50;;
71503;SDS011;59323;50.874;7.028;2022-10-31T04:26:49;11.97;;;4.80;;
71503;SDS011;59323;50.874;7.028;2022-10-31T04:29:14;14.10;;;5.03;;
71503;SDS011;59323;50.874;7.028;2022-10-31T04:31:40;10.50;;;4.50;;
71503;SDS011;59323;50.874;7.028;2022-10-31T04:34:05;13.90;;;5.30;;
71503;SDS011;59323;50.874;7.028;2022-10-31T04:36:30;14.47;;;4.40;;
71503;SDS011;59323;50.874;7.028;2022-10-31T04:38:56;12.63;;;4.50;;
71503;SDS011;59323;50.874;7.028;2022-10-31T04:41:21;12.80;;;5.00;;
71503;SDS011;59323;50.874;7.028;2022-10-31T04:43:46;10.77;;;4.30;;
71503;SDS011;59323;50.874;7.028;2022-10-31T04:46:12;14.47;;;4.70;;
71503;SDS011;59323;50.874;7.028;2022-10-31T04:48:37;11.40;;;4.75;;
71503;SDS011;59323;50.874;7.028;2022-10-31T04:51:02;13.07;;;4.57;;
71503;SDS011;59323;50.874;7.028;2022-10-31T04:53:28;9.90;;;4.50;;
71503;SDS011;59323;50.874;7.028;2022-10-31T04:55:54;18.45;;;4.53;;
71503;SDS011;59323;50.874;7.028;2022-10-31T04:58:22;13.02;;;4.85;;
71503;SDS011;59323;50.874;7.028;2022-10-31T05:00:50;11.37;;;4.20;;
71503;SDS011;59323;50.874;7.028;2022-10-31T05:03:16;10.65;;;4.30;;
71503;SDS011;59323;50.874;7.028;2022-10-31T05:05:42;10.80;;;4.43;;
71503;SDS011;59323;50.874;7.028;2022-10-31T05:08:07;13.63;;;4.23;;
71503;SDS011;59323;50.874;7.028;2022-10-31T05:10:32;11.20;;;4.20;;
71503;SDS011;59323;50.874;7.028;2022-10-31T05:12:59;10.70;;;4.18;;
71503;SDS011;59323;50.874;7.028;2022-10-31T05:15:26;12.77;;;4.70;;
71503;SDS011;59323;50.874;7.028;2022-10-31T05:17:53;12.02;;;4.60;;
71503;SDS011;59323;50.874;7.028;2022-10-31T05:20:20;10.50;;;4.30;;
71503;SDS011;59323;50.874;7.028;2022-10-31T05:22:50;12.50;;;5.13;;
71503;SDS011;59323;50.874;7.028;2022-10-31T05:25:18;10.98;;;4.60;;
71503;SDS011;59323;50.874;7.028;2022-10-31T05:27:45;10.73;;;4.23;;
71503;SDS011;59323;50.874;7.028;2022-10-31T05:30:12;12.15;;;4.82;;
71503;SDS011;59323;50.874;7.028;2022-10-31T05:35:05;9.85;;;4.78;;
71503;SDS011;59323;50.874;7.028;2022-10-31T05:37:35;14.80;;;4.83;;
71503;SDS011;59323;50.874;7.028;2022-10-31T05:40:01;11.23;;;4.70;;
71503;SDS011;59323;50.874;7.028;2022-10-31T05:42:28;13.15;;;4.55;;
71503;SDS011;59323;50.874;7.028;2022-10-31T05:44:53;12.23;;;4.87;;
71503;SDS011;59323;50.874;7.028;2022-10-31T05:47:18;13.20;;;4.37;;
71503;SDS011;59323;50.874;7.028;2022-10-31T05:49:44;12.53;;;4.97;;
71503;SDS011;59323;50.874;7.028;2022-10-31T05:52:09;12.73;;;4.57;;
71503;SDS011;59323;50.874;7.028;2022-10-31T05:54:34;13.20;;;5.10;;
71503;SDS011;59323;50.874;7.028;2022-10-31T05:57:00;12.25;;;4.80;;
71503;SDS011;59323;50.874;7.028;2022-10-31T05:59:25;11.73;;;4.30;;
71503;SDS011;59323;50.874;7.028;2022-10-31T06:01:50;13.40;;;5.30;;
71503;SDS011;59323;50.874;7.028;2022-10-31T06:04:16;10.93;;;4.43;;
71503;SDS011;59323;50.874;7.028;2022-10-31T06:06:41;12.50;;;4.73;;
71503;SDS011;59323;50.874;7.028;2022-10-31T06:09:06;12.90;;;4.70;;
71503;SDS011;59323;50.874;7.028;2022-10-31T06:11:32;11.65;;;4.40;;
71503;SDS011;59323;50.874;7.028;2022-10-31T06:13:57;11.03;;;5.03;;
71503;SDS011;59323;50.874;7.028;2022-10-31T06:16:22;14.13;;;4.80;;
71503;SDS011;59323;50.874;7.028;2022-10-31T06:18:48;10.40;;;4.50;;
71503;SDS011;59323;50.874;7.028;2022-10-31T06:21:13;10.30;;;4.72;;
71503;SDS011;59323;50.874;7.028;2022-10-31T06:23:39;11.60;;;4.70;;
71503;SDS011;59323;50.874;7.028;2022-10-31T06:26:10;10.27;;;4.55;;
71503;SDS011;59323;50.874;7.028;2022-10-31T06:28:41;13.13;;;4.47;;
71503;SDS011;59323;50.874;7.028;2022-10-31T06:31:07;16.15;;;5.15;;
71503;SDS011;59323;50.874;7.028;2022-10-31T06:33:32;12.27;;;5.17;;
71503;SDS011;59323;50.874;7.028;2022-10-31T06:38:37;12.05;;;5.40;;
71503;SDS011;59323;50.874;7.028;2022-10-31T06:41:03;13.97;;;5.87;;
71503;SDS011;59323;50.874;7.028;2022-10-31T06:43:29;12.55;;;5.43;;
71503;SDS011;59323;50.874;7.028;2022-10-31T06:46:02;11.88;;;5.03;;
71503;SDS011;59323;50.874;7.028;2022-10-31T06:48:29;12.18;;;4.78;;
71503;SDS011;59323;50.874;7.028;2022-10-31T06:51:01;18.13;;;5.63;;
71503;SDS011;59323;50.874;7.028;2022-10-31T06:53:27;14.05;;;5.82;;
71503;SDS011;59323;50.874;7.028;2022-10-31T06:56:01;16.88;;;6.13;;
71503;SDS011;59323;50.874;7.028;2022-10-31T06:58:29;14.33;;;4.93;;
71503;SDS011;59323;50.874;7.028;2022-10-31T07:03:52;14.57;;;5.30;;
71503;SDS011;59323;50.874;7.028;2022-10-31T07:06:18;13.43;;;5.95;;
71503;SDS011;59323;50.874;7.028;2022-10-31T07:08:43;13.80;;;5.40;;
71503;SDS011;59323;50.874;7.028;2022-10-31T07:11:11;13.32;;;5.53;;
71503;SDS011;59323;50.874;7.028;2022-10-31T07:13:36;13.70;;;5.37;;
71503;SDS011;59323;50.874;7.028;2022-10-31T07:16:25;12.02;;;5.32;;
71503;SDS011;59323;50.874;7.028;2022-10-31T07:18:56;16.47;;;5.70;;
71503;SDS011;59323;50.874;7.028;2022-10-31T07:21:21;13.82;;;5.68;;
71503;SDS011;59323;50.874;7.028;2022-10-31T07:27:14;13.57;;;5.57;;
71503;SDS011;59323;50.874;7.028;2022-10-31T07:29:40;12.93;;;5.22;;
71503;SDS011;59323;50.874;7.028;2022-10-31T07:32:05;16.57;;;5.53;;
71503;SDS011;59323;50.874;7.028;2022-10-31T07:34:30;12.83;;;4.97;;
71503;SDS011;59323;50.874;7.028;2022-10-31T07:36:56;13.38;;;4.53;;
71503;SDS011;59323;50.874;7.028;2022-10-31T07:39:30;16.97;;;5.50;;
71503;SDS011;59323;50.874;7.028;2022-10-31T07:41:57;15.23;;;5.57;;
71503;SDS011;59323;50.874;7.028;2022-10-31T07:44:23;11.97;;;5.13;;
71503;SDS011;59323;50.874;7.028;2022-10-31T07:46:48;13.53;;;5.40;;
71503;SDS011;59323;50.874;7.028;2022-10-31T07:49:14;15.77;;;5.00;;
71503;SDS011;59323;50.874;7.028;2022-10-31T07:51:51;19.00;;;5.97;;
71503;SDS011;59323;50.874;7.028;2022-10-31T07:54:16;13.23;;;4.88;;
71503;SDS011;59323;50.874;7.028;2022-10-31T07:56:42;10.77;;;5.00;;
71503;SDS011;59323;50.874;7.028;2022-10-31T07:59:10;10.90;;;4.30;;
71503;SDS011;59323;50.874;7.028;2022-10-31T08:01:38;12.18;;;5.10;;
71503;SDS011;59323;50.874;7.028;2022-10-31T08:04:07;12.57;;;4.60;;
71503;SDS011;59323;50.874;7.028;2022-10-31T08:06:32;15.87;;;5.67;;
71503;SDS011;59323;50.874;7.028;2022-10-31T08:08:59;12.38;;;4.70;;
71503;SDS011;59323;50.874;7.028;2022-10-31T08:11:24;19.23;;;5.57;;
71503;SDS011;59323;50.874;7.028;2022-10-31T08:13:50;14.65;;;5.10;;
71503;SDS011;59323;50.874;7.028;2022-10-31T08:16:18;11.57;;;4.90;;
71503;SDS011;59323;50.874;7.028;2022-10-31T08:18:51;14.90;;;5.22;;
71503;SDS011;59323;50.874;7.028;2022-10-31T08:24:54;12.73;;;4.97;;
71503;SDS011;59323;50.874;7.028;2022-10-31T08:27:41;11.43;;;4.85;;
71503;SDS011;59323;50.874;7.028;2022-10-31T08:30:12;13.50;;;5.45;;
71503;SDS011;59323;50.874;7.028;2022-10-31T08:36:19;16.97;;;6.23;;
71503;SDS011;59323;50.874;7.028;2022-10-31T08:39:10;12.60;;;5.10;;
71503;SDS011;59323;50.874;7.028;2022-10-31T08:41:38;14.07;;;5.57;;
71503;SDS011;59323;50.874;7.028;2022-10-31T08:44:11;10.85;;;5.40;;
71503;SDS011;59323;50.874;7.028;2022-10-31T08:46:39;10.00;;;4.87;;
71503;SDS011;59323;50.874;7.028;2022-10-31T08:52:07;14.60;;;5.50;;
71503;SDS011;59323;50.874;7.028;2022-10-31T08:54:38;15.98;;;5.28;;
71503;SDS011;59323;50.874;7.028;2022-10-31T08:57:54;17.73;;;5.93;;
71503;SDS011;59323;50.874;7.028;2022-10-31T09:00:33;13.90;;;5.77;;
71503;SDS011;59323;50.874;7.028;2022-10-31T09:03:05;13.50;;;4.95;;
71503;SDS011;59323;50.874;7.028;2022-10-31T09:05:34;14.13;;;5.28;;
71503;SDS011;59323;50.874;7.028;2022-10-31T09:08:00;12.50;;;4.60;;
71503;SDS011;59323;50.874;7.028;2022-10-31T09:10:27;15.73;;;5.90;;
71503;SDS011;59323;50.874;7.028;2022-10-31T09:16:06;18.85;;;6.32;;
71503;SDS011;59323;50.874;7.028;2022-10-31T09:18:35;15.90;;;4.93;;
71503;SDS011;59323;50.874;7.028;2022-10-31T09:21:01;11.75;;;4.93;;
71503;SDS011;59323;50.874;7.028;2022-10-31T09:23:37;14.60;;;5.47;;
71503;SDS011;59323;50.874;7.028;2022-10-31T09:26:05;17.80;;;5.47;;
71503;SDS011;59323;50.874;7.028;2022-10-31T09:28:31;11.32;;;5.30;;
71503;SDS011;59323;50.874;7.028;2022-10-31T09:31:04;11.63;;;5.07;;
71503;SDS011;59323;50.874;7.028;2022-10-31T09:33:36;12.37;;;5.53;;
71503;SDS011;59323;50.874;7.028;2022-10-31T09:36:36;16.17;;;5.50;;
71503;SDS011;59323;50.874;7.028;2022-10-31T09:48:31;13.85;;;5.18;;
71503;SDS011;59323;50.874;7.028;2022-10-31T09:51:15;17.27;;;5.25;;
71503;SDS011;59323;50.874;7.028;2022-10-31T09:57:29;14.53;;;5.00;;
71503;SDS011;59323;50.874;7.028;2022-10-31T10:06:21;13.40;;;4.78;;
71503;SDS011;59323;50.874;7.028;2022-10-31T10:08:58;13.10;;;4.85;;
71503;SDS011;59323;50.874;7.028;2022-10-31T10:34:06;11.90;;;4.55;;
71503;SDS011;59323;50.874;7.028;2022-10-31T10:36:50;11.55;;;4.22;;
71503;SDS011;59323;50.874;7.028;2022-10-31T10:39:23;13.93;;;4.63;;
71503;SDS011;59323;50.874;7.028;2022-10-31T10:41:52;11.83;;;4.13;;
71503;SDS011;59323;50.874;7.028;2022-10-31T10:44:40;12.95;;;4.07;;
71503;SDS011;59323;50.874;7.028;2022-10-31T10:47:31;12.00;;;4.85;;
71503;SDS011;59323;50.874;7.028;2022-10-31T10:50:09;12.68;;;4.40;;
71503;SDS011;59323;50.874;7.028;2022-10-31T10:58:56;13.35;;;4.60;;
71503;SDS011;59323;50.874;7.028;2022-10-31T11:01:22;10.90;;;4.22;;
71503;SDS011;59323;50.874;7.028;2022-10-31T11:03:48;12.63;;;3.97;;
71503;SDS011;59323;50.874;7.028;2022-10-31T11:06:18;12.93;;;4.15;;
71503;SDS011;59323;50.874;7.028;2022-10-31T11:08:47;10.70;;;4.65;;
71503;SDS011;59323;50.874;7.028;2022-10-31T11:13:42;11.90;;;4.00;;
71503;SDS011;59323;50.874;7.028;2022-10-31T11:16:14;15.75;;;4.15;;
71503;SDS011;59323;50.874;7.028;2022-10-31T11:18:52;10.93;;;4.70;;
71503;SDS011;59323;50.874;7.028;2022-10-31T11:21:24;17.90;;;5.32;;
71503;SDS011;59323;50.874;7.028;2022-10-31T11:26:40;12.53;;;4.10;;
71503;SDS011;59323;50.874;7.028;2022-10-31T11:29:40;12.75;;;4.15;;
71503;SDS011;59323;50.874;7.028;2022-10-31T11:31:58;13.27;;;4.40;;
71503;SDS011;59323;50.874;7.028;2022-10-31T11:37:10;12.75;;;4.20;;
71503;SDS011;59323;50.874;7.028;2022-10-31T11:39:41;13.30;;;4.40;;
71503;SDS011;59323;50.874;7.028;2022-10-31T11:42:09;11.38;;;3.90;;
71503;SDS011;59323;50.874;7.028;2022-10-31T11:44:35;11.65;;;3.75;;
71503;SDS011;59323;50.874;7.028;2022-10-31T11:47:01;11.77;;;3.87;;
71503;SDS011;59323;50.874;7.028;2022-10-31T11:49:31;11.68;;;4.13;;
71503;SDS011;59323;50.874;7.028;2022-10-31T11:52:17;15.60;;;4.20;;
71503;SDS011;59323;50.874;7.028;2022-10-31T11:54:55;11.40;;;4.25;;
71503;SDS011;59323;50.874;7.028;2022-10-31T11:57:41;12.37;;;4.30;;
71503;SDS011;59323;50.874;7.028;2022-10-31T12:03:10;10.77;;;4.43;;
71503;SDS011;59323;50.874;7.028;2022-10-31T12:05:35;13.27;;;4.07;;
71503;SDS011;59323;50.874;7.028;2022-10-31T12:08:03;13.07;;;4.13;;
71503;SDS011;59323;50.874;7.028;2022-10-31T12:10:31;13.53;;;4.30;;
71503;SDS011;59323;50.874;7.028;2022-10-31T12:15:59;9.57;;;3.88;;
71503;SDS011;59323;50.874;7.028;2022-10-31T12:40:48;11.90;;;3.92;;
71503;SDS011;59323;50.874;7.028;2022-10-31T12:43:31;12.15;;;3.47;;
71503;SDS011;59323;50.874;7.028;2022-10-31T12:45:59;10.17;;;3.70;;
71503;SDS011;59323;50.874;7.028;2022-10-31T12:59:36;11.33;;;3.90;;
71503;SDS011;59323;50.874;7.028;2022-10-31T13:02:28;11.75;;;3.67;;
71503;SDS011;59323;50.874;7.028;2022-10-31T13:07:43;9.13;;;3.47;;
71503;SDS011;59323;50.874;7.028;2022-10-31T13:10:19;11.70;;;3.88;;
71503;SDS011;59323;50.874;7.028;2022-10-31T13:13:19;11.40;;;3.33;;
71503;SDS011;59323;50.874;7.028;2022-10-31T13:15:55;11.68;;;3.83;;
71503;SDS011;59323;50.874;7.028;2022-10-31T13:18:35;10.10;;;3.75;;
71503;SDS011;59323;50.874;7.028;2022-10-31T13:21:10;8.68;;;2.97;;
71503;SDS011;59323;50.874;7.028;2022-10-31T13:23:41;10.90;;;3.58;;
71503;SDS011;59323;50.874;7.028;2022-10-31T13:26:11;13.07;;;3.60;;
71503;SDS011;59323;50.874;7.028;2022-10-31T13:28:44;14.20;;;3.78;;
71503;SDS011;59323;50.874;7.028;2022-10-31T13:31:15;12.38;;;4.75;;
71503;SDS011;59323;50.874;7.028;2022-10-31T13:33:52;10.63;;;3.87;;
71503;SDS011;59323;50.874;7.028;2022-10-31T13:36:28;13.65;;;3.55;;
71503;SDS011;59323;50.874;7.028;2022-10-31T13:39:09;11.48;;;3.22;;
71503;SDS011;59323;50.874;7.028;2022-10-31T13:42:02;13.18;;;3.35;;
71503;SDS011;59323;50.874;7.028;2022-10-31T13:44:29;9.27;;;3.13;;
71503;SDS011;59323;50.874;7.028;2022-10-31T13:46:55;11.27;;;3.83;;
71503;SDS011;59323;50.874;7.028;2022-10-31T13:52:12;11.50;;;3.70;;
71503;SDS011;59323;50.874;7.028;2022-10-31T13:54:44;10.87;;;4.20;;
71503;SDS011;59323;50.874;7.028;2022-10-31T14:02:59;10.15;;;4.03;;
71503;SDS011;59323;50.874;7.028;2022-10-31T14:05:32;12.47;;;3.97;;
71503;SDS011;59323;50.874;7.028;2022-10-31T14:08:00;11.37;;;3.90;;
71503;SDS011;59323;50.874;7.028;2022-10-31T14:13:03;12.82;;;3.78;;
71503;SDS011;59323;50.874;7.028;2022-10-31T14:15:32;12.23;;;3.70;;
71503;SDS011;59323;50.874;7.028;2022-10-31T14:17:59;11.73;;;3.77;;
71503;SDS011;59323;50.874;7.028;2022-10-31T14:20:39;10.70;;;3.67;;
71503;SDS011;59323;50.874;7.028;2022-10-31T14:23:13;12.30;;;3.50;;
71503;SDS011;59323;50.874;7.028;2022-10-31T14:26:30;14.70;;;3.40;;
71503;SDS011;59323;50.874;7.028;2022-10-31T14:42:37;10.27;;;3.13;;
71503;SDS011;59323;50.874;7.028;2022-10-31T14:47:58;10.85;;;3.15;;
71503;SDS011;59323;50.874;7.028;2022-10-31T14:53:19;16.20;;;4.15;;
71503;SDS011;59323;50.874;7.028;2022-10-31T14:56:00;10.43;;;3.60;;
71503;SDS011;59323;50.874;7.028;2022-10-31T15:00:55;12.45;;;3.78;;
71503;SDS011;59323;50.874;7.028;2022-10-31T15:03:27;12.63;;;3.80;;
71503;SDS011;59323;50.874;7.028;2022-10-31T15:05:58;9.90;;;3.13;;
71503;SDS011;59323;50.874;7.028;2022-10-31T15:11:13;13.73;;;3.30;;
71503;SDS011;59323;50.874;7.028;2022-10-31T15:13:46;13.65;;;3.92;;
71503;SDS011;59323;50.874;7.028;2022-10-31T15:16:20;19.02;;;4.00;;
71503;SDS011;59323;50.874;7.028;2022-10-31T15:18:52;9.07;;;3.58;;
71503;SDS011;59323;50.874;7.028;2022-10-31T15:21:42;9.45;;;3.10;;
71503;SDS011;59323;50.874;7.028;2022-10-31T15:27:01;12.75;;;3.65;;
71503;SDS011;59323;50.874;7.028;2022-10-31T15:29:46;12.13;;;4.05;;
71503;SDS011;59323;50.874;7.028;2022-10-31T15:39:52;9.00;;;3.73;;
71503;SDS011;59323;50.874;7.028;2022-10-31T15:42:39;9.88;;;3.05;;
71503;SDS011;59323;50.874;7.028;2022-10-31T15:48:54;13.70;;;3.15;;
71503;SDS011;59323;50.874;7.028;2022-10-31T15:51:26;12.20;;;3.55;;
71503;SDS011;59323;50.874;7.028;2022-10-31T15:54:02;9.80;;;3.08;;
71503;SDS011;59323;50.874;7.028;2022-10-31T15:56:46;13.30;;;3.60;;
71503;SDS011;59323;50.874;7.028;2022-10-31T15:59:25;14.07;;;2.77;;
71503;SDS011;59323;50.874;7.028;2022-10-31T16:05:34;9.38;;;3.30;;
71503;SDS011;59323;50.874;7.028;2022-10-31T16:11:00;12.05;;;3.35;;
71503;SDS011;59323;50.874;7.028;2022-10-31T16:17:13;12.10;;;4.13;;
71503;SDS011;59323;50.874;7.028;2022-10-31T16:20:05;10.88;;;3.90;;
71503;SDS011;59323;50.874;7.028;2022-10-31T16:22:46;9.27;;;3.33;;
71503;SDS011;59323;50.874;7.028;2022-10-31T16:25:36;12.23;;;3.47;;
71503;SDS011;59323;50.874;7.028;2022-10-31T16:28:03;14.47;;;3.70;;
71503;SDS011;59323;50.874;7.028;2022-10-31T16:30:42;10.90;;;3.35;;
71503;SDS011;59323;50.874;7.028;2022-10-31T16:35:50;12.57;;;4.00;;
71503;SDS011;59323;50.874;7.028;2022-10-31T16:38:15;14.50;;;4.10;;
71503;SDS011;59323;50.874;7.028;2022-10-31T16:40:41;16.50;;;4.03;;
71503;SDS011;59323;50.874;7.028;2022-10-31T16:43:11;20.42;;;4.82;;
71503;SDS011;59323;50.874;7.028;2022-10-31T16:45:43;12.53;;;3.60;;
71503;SDS011;59323;50.874;7.028;2022-10-31T16:48:14;14.13;;;3.33;;
71503;SDS011;59323;50.874;7.028;2022-10-31T16:50:42;10.77;;;3.55;;
71503;SDS011;59323;50.874;7.028;2022-10-31T16:53:08;13.55;;;5.50;;
71503;SDS011;59323;50.874;7.028;2022-10-31T16:55:35;15.48;;;4.40;;
71503;SDS011;59323;50.874;7.028;2022-10-31T16:58:13;10.87;;;3.67;;
71503;SDS011;59323;50.874;7.028;2022-10-31T17:00:42;15.95;;;4.38;;
71503;SDS011;59323;50.874;7.028;2022-10-31T17:03:08;13.13;;;3.50;;
71503;SDS011;59323;50.874;7.028;2022-10-31T17:05:34;9.85;;;3.72;;
71503;SDS011;59323;50.874;7.028;2022-10-31T17:08:00;11.83;;;3.67;;
71503;SDS011;59323;50.874;7.028;2022-10-31T17:10:26;9.35;;;3.28;;
71503;SDS011;59323;50.874;7.028;2022-10-31T17:12:51;14.00;;;4.30;;
71503;SDS011;59323;50.874;7.028;2022-10-31T17:15:21;10.88;;;3.50;;
71503;SDS011;59323;50.874;7.028;2022-10-31T17:17:49;10.82;;;3.53;;
71503;SDS011;59323;50.874;7.028;2022-10-31T17:20:23;13.80;;;3.23;;
71503;SDS011;59323;50.874;7.028;2022-10-31T17:22:50;10.25;;;3.45;;
71503;SDS011;59323;50.874;7.028;2022-10-31T17:25:17;11.35;;;3.58;;
71503;SDS011;59323;50.874;7.028;2022-10-31T17:27:45;9.00;;;3.42;;
71503;SDS011;59323;50.874;7.028;2022-10-31T17:30:11;12.50;;;3.77;;
71503;SDS011;59323;50.874;7.028;2022-10-31T17:32:38;12.02;;;3.92;;
71503;SDS011;59323;50.874;7.028;2022-10-31T17:35:04;11.55;;;3.72;;
71503;SDS011;59323;50.874;7.028;2022-10-31T17:37:29;9.80;;;3.07;;
71503;SDS011;59323;50.874;7.028;2022-10-31T17:39:55;11.32;;;4.43;;
71503;SDS011;59323;50.874;7.028;2022-10-31T17:42:20;12.60;;;3.03;;
71503;SDS011;59323;50.874;7.028;2022-10-31T17:44:46;8.07;;;2.83;;
71503;SDS011;59323;50.874;7.028;2022-10-31T17:47:11;9.97;;;3.67;;
71503;SDS011;59323;50.874;7.028;2022-10-31T17:49:36;10.57;;;4.10;;
71503;SDS011;59323;50.874;7.028;2022-10-31T17:52:02;9.83;;;4.07;;
71503;SDS011;59323;50.874;7.028;2022-10-31T17:54:27;10.80;;;3.75;;
71503;SDS011;59323;50.874;7.028;2022-10-31T17:56:52;11.73;;;3.97;;
71503;SDS011;59323;50.874;7.028;2022-10-31T17:59:18;10.07;;;3.80;;
71503;SDS011;59323;50.874;7.028;2022-10-31T18:01:43;13.60;;;3.90;;
71503;SDS011;59323;50.874;7.028;2022-10-31T18:04:09;9.50;;;3.75;;
71503;SDS011;59323;50.874;7.028;2022-10-31T18:06:35;11.17;;;3.13;;
71503;SDS011;59323;50.874;7.028;2022-10-31T18:09:04;13.77;;;3.72;;
71503;SDS011;59323;50.874;7.028;2022-10-31T18:11:30;14.05;;;3.78;;
71503;SDS011;59323;50.874;7.028;2022-10-31T18:13:56;11.47;;;3.37;;
71503;SDS011;59323;50.874;7.028;2022-10-31T18:16:23;15.15;;;4.10;;
71503;SDS011;59323;50.874;7.028;2022-10-31T18:18:53;13.20;;;4.30;;
71503;SDS011;59323;50.874;7.028;2022-10-31T18:21:22;13.63;;;4.47;;
71503;SDS011;59323;50.874;7.028;2022-10-31T18:23:48;11.23;;;4.27;;
71503;SDS011;59323;50.874;7.028;2022-10-31T18:26:18;9.18;;;3.85;;
71503;SDS011;59323;50.874;7.028;2022-10-31T18:28:43;10.67;;;3.77;;
71503;SDS011;59323;50.874;7.028;2022-10-31T18:31:09;11.40;;;3.47;;
71503;SDS011;59323;50.874;7.028;2022-10-31T18:33:34;11.57;;;3.77;;